Time;durP1;ratioP1;P1;durP2;ratioP2;P2;SDS_P1;SDS_P2;PMS_P1;PMS_P2;Temp;Humidity;BMP_temperature;BMP_pressure;BME280_temperature;BME280_humidity;BME280_pressure;Samples;Min_cycle;Max_cycle;Signal;HPM_P1;HPM_P2
2021/03/07 00:02:36;;;;;;;2.90;2.60;;;3.40;99.90;;;;;;4910747;29;20416;-83
2021/03/07 00:05:23;;;;;;;2.53;2.33;;;3.40;99.90;;;;;;4904245;29;20448;-80
2021/03/07 00:08:33;;;;;;;2.20;2.10;;;3.30;99.90;;;;;;4897459;29;20413;-81
2021/03/07 00:11:11;;;;;;;2.47;2.30;;;3.40;99.90;;;;;;4944505;29;20422;-82
2021/03/07 00:13:37;;;;;;;2.75;2.55;;;3.40;99.90;;;;;;4925212;29;20424;-82
2021/03/07 00:16:27;;;;;;;3.10;2.80;;;3.50;99.90;;;;;;4903215;29;20482;-81
2021/03/07 00:19:01;;;;;;;2.90;2.70;;;3.40;99.90;;;;;;4935142;29;20410;-82
2021/03/07 00:21:47;;;;;;;2.58;2.38;;;3.30;99.90;;;;;;4933277;28;20417;-83
2021/03/07 00:24:15;;;;;;;3.20;2.60;;;3.30;99.90;;;;;;4902180;29;20413;-81
2021/03/07 00:26:41;;;;;;;2.60;2.40;;;3.40;99.90;;;;;;4941094;28;20415;-82
2021/03/07 00:29:28;;;;;;;4.78;2.70;;;3.40;99.90;;;;;;4923987;28;20418;-82
2021/03/07 00:31:54;;;;;;;2.78;2.58;;;3.40;99.90;;;;;;4947919;29;20405;-82
2021/03/07 00:34:22;;;;;;;5.78;2.63;;;3.40;99.90;;;;;;4926190;29;20438;-82
2021/03/07 00:37:16;;;;;;;2.93;2.57;;;3.40;99.90;;;;;;4944201;29;20925;-81
2021/03/07 00:40:15;;;;;;;2.55;2.35;;;3.30;99.90;;;;;;4912390;28;20413;-81
2021/03/07 00:43:05;;;;;;;2.75;2.40;;;3.30;99.90;;;;;;4881089;29;20457;-83
2021/03/07 00:46:39;;;;;;;3.05;2.80;;;3.30;99.90;;;;;;4945940;29;20414;-83
2021/03/07 00:49:11;;;;;;;2.90;2.70;;;3.40;99.90;;;;;;4930486;29;20433;-81
2021/03/07 00:51:41;;;;;;;2.92;2.72;;;3.30;99.90;;;;;;4931043;29;20422;-81
2021/03/07 00:54:29;;;;;;;3.15;2.65;;;3.40;99.90;;;;;;4935244;29;20414;-82
2021/03/07 00:57:00;;;;;;;2.95;2.72;;;3.30;99.90;;;;;;4912734;28;20805;-81
2021/03/07 00:59:28;;;;;;;2.83;2.60;;;3.20;99.90;;;;;;4907884;29;20496;-82
2021/03/07 01:01:58;;;;;;;2.97;2.78;;;3.30;99.90;;;;;;4930616;29;20413;-82
2021/03/07 01:04:48;;;;;;;3.00;2.80;;;3.30;99.90;;;;;;4925736;28;20414;-81
2021/03/07 01:07:15;;;;;;;3.00;2.80;;;3.30;99.90;;;;;;4936374;29;20477;-83
2021/03/07 01:09:42;;;;;;;2.95;2.75;;;3.30;99.90;;;;;;4938454;29;20430;-81
2021/03/07 01:12:09;;;;;;;2.92;2.60;;;3.30;99.90;;;;;;4941121;29;20421;-81
2021/03/07 01:14:36;;;;;;;3.17;2.80;;;3.20;99.90;;;;;;4924344;29;20439;-81
2021/03/07 01:17:04;;;;;;;3.42;3.13;;;3.20;99.90;;;;;;4948873;28;20594;-81
2021/03/07 01:19:53;;;;;;;3.45;3.15;;;3.20;99.90;;;;;;4932752;28;20478;-81
2021/03/07 01:22:19;;;;;;;3.13;2.90;;;3.20;99.90;;;;;;4882372;29;20461;-83
2021/03/07 01:24:45;;;;;;;3.30;3.00;;;3.20;99.90;;;;;;4899480;28;20426;-82
2021/03/07 01:27:17;;;;;;;4.57;3.45;;;3.20;99.90;;;;;;4923237;29;20402;-81
2021/03/07 01:30:18;;;;;;;4.32;3.80;;;3.20;99.90;;;;;;4938842;29;20462;-81
2021/03/07 01:32:47;;;;;;;4.03;3.63;;;3.20;99.90;;;;;;4938998;29;20481;-82
2021/03/07 01:35:17;;;;;;;4.10;3.70;;;3.20;99.90;;;;;;4933717;29;20753;-82
2021/03/07 01:37:47;;;;;;;4.10;3.70;;;3.20;99.90;;;;;;4935015;28;20401;-82
2021/03/07 01:40:51;;;;;;;4.38;3.53;;;3.20;99.90;;;;;;4909174;29;20986;-82
2021/03/07 01:43:22;;;;;;;4.28;3.83;;;3.20;99.90;;;;;;4931916;29;20497;-83
2021/03/07 01:45:48;;;;;;;4.43;4.03;;;3.20;99.90;;;;;;4906989;29;20396;-81
2021/03/07 01:58:27;;;;;;;4.43;3.97;;;3.20;99.90;;;;;;5721756;23;20902;-81
2021/03/07 02:00:53;;;;;;;5.07;4.25;;;3.20;99.90;;;;;;4941371;29;20468;-81
2021/03/07 02:03:19;;;;;;;4.38;3.97;;;3.20;99.90;;;;;;4956798;29;20898;-81
2021/03/07 02:05:45;;;;;;;4.30;3.90;;;3.20;99.90;;;;;;4941000;29;20592;-81
2021/03/07 02:08:11;;;;;;;4.40;4.00;;;3.20;99.90;;;;;;4940928;29;20394;-80
2021/03/07 02:10:38;;;;;;;5.00;3.87;;;3.20;99.90;;;;;;4940027;29;20402;-80
2021/03/07 02:13:13;;;;;;;4.03;3.72;;;3.20;99.90;;;;;;4941398;29;20406;-81
2021/03/07 02:15:40;;;;;;;4.65;4.25;;;3.20;99.90;;;;;;4955888;28;20989;-82
2021/03/07 02:18:06;;;;;;;4.60;4.10;;;3.20;99.90;;;;;;4931321;29;20413;-82
2021/03/07 02:20:33;;;;;;;5.10;4.60;;;3.20;99.90;;;;;;4943783;29;20390;-84
2021/03/07 02:29:25;;;;;;;4.27;3.87;;;3.20;99.90;;;;;;5361960;23;20472;-81
2021/03/07 02:32:04;;;;;;;4.32;3.92;;;3.20;99.90;;;;;;4942757;29;20458;-83
2021/03/07 02:35:03;;;;;;;4.90;4.03;;;3.20;99.90;;;;;;4952336;29;20402;-81
2021/03/07 02:38:11;;;;;;;4.90;4.40;;;3.20;99.90;;;;;;4866644;29;20416;-81
2021/03/07 02:40:41;;;;;;;4.38;3.97;;;3.20;99.90;;;;;;4922154;28;20427;-81
2021/03/07 02:43:12;;;;;;;4.50;4.10;;;3.20;99.90;;;;;;4916500;28;20408;-79
2021/03/07 02:45:39;;;;;;;4.72;4.22;;;3.20;99.90;;;;;;4898239;28;20406;-81
2021/03/07 02:48:45;;;;;;;4.18;3.88;;;3.10;99.90;;;;;;4909616;29;20440;-82
2021/03/07 02:51:18;;;;;;;3.97;3.67;;;3.20;99.90;;;;;;4898152;28;20415;-83
2021/03/07 02:54:17;;;;;;;4.75;3.85;;;3.20;99.90;;;;;;4963543;28;20400;-80
2021/03/07 02:57:09;;;;;;;4.32;3.92;;;3.20;99.90;;;;;;4945307;29;20420;-80
2021/03/07 03:00:14;;;;;;;4.65;4.15;;;3.20;99.90;;;;;;4925436;28;20797;-82
2021/03/07 03:07:50;;;;;;;4.53;3.78;;;3.20;99.90;;;;;;4887198;28;20479;-80
2021/03/07 03:10:21;;;;;;;4.57;4.10;;;3.00;99.90;;;;;;4943727;28;20409;-81
2021/03/07 03:14:05;;;;;;;5.95;4.18;;;3.10;99.90;;;;;;4892647;29;20402;-81
2021/03/07 03:26:11;;;;;;;5.18;4.60;;;3.20;99.90;;;;;;4927874;29;20417;-80
2021/03/07 03:29:36;;;;;;;4.60;4.20;;;3.10;99.90;;;;;;4905408;29;20423;-83
2021/03/07 03:32:51;;;;;;;5.43;4.20;;;3.10;99.90;;;;;;4891161;29;20464;-81
2021/03/07 03:35:42;;;;;;;5.30;4.30;;;3.10;99.90;;;;;;4914361;28;20445;-84
2021/03/07 03:48:32;;;;;;;5.35;4.53;;;3.00;99.90;;;;;;5633375;23;20424;-81
2021/03/07 03:55:30;;;;;;;4.50;4.10;;;3.10;99.90;;;;;;4864951;29;20435;-83
2021/03/07 03:58:21;;;;;;;4.65;4.15;;;3.00;99.90;;;;;;4901286;29;20395;-82
2021/03/07 04:00:50;;;;;;;4.78;3.78;;;3.00;99.90;;;;;;4937212;29;20389;-83
2021/03/07 04:03:36;;;;;;;5.07;4.07;;;3.10;99.90;;;;;;4937629;29;20412;-83
2021/03/07 04:06:02;;;;;;;4.50;4.10;;;3.00;99.90;;;;;;4927799;29;20452;-85
2021/03/07 04:08:28;;;;;;;4.53;4.10;;;3.00;99.90;;;;;;4901455;29;20404;-82
2021/03/07 04:11:05;;;;;;;4.40;3.95;;;3.00;99.90;;;;;;4926269;29;20405;-81
2021/03/07 04:13:31;;;;;;;5.18;3.97;;;3.00;99.90;;;;;;4895770;29;20403;-84
2021/03/07 04:15:58;;;;;;;4.00;3.70;;;3.00;99.90;;;;;;4910222;29;20441;-81
2021/03/07 04:18:25;;;;;;;4.97;4.47;;;3.00;99.90;;;;;;4925907;29;20915;-83
2021/03/07 04:20:51;;;;;;;4.43;4.05;;;3.10;99.90;;;;;;4914005;29;20408;-83
2021/03/07 04:23:17;;;;;;;4.43;4.03;;;2.90;99.90;;;;;;4923384;29;20407;-82
2021/03/07 04:33:54;;;;;;;4.72;4.00;;;3.00;99.90;;;;;;4919701;29;20791;-81
2021/03/07 04:36:19;;;;;;;4.30;3.92;;;3.00;99.90;;;;;;4922761;29;20420;-84
2021/03/07 04:38:45;;;;;;;3.90;3.53;;;3.10;99.90;;;;;;4916128;29;20411;-82
2021/03/07 04:41:11;;;;;;;4.00;3.67;;;2.80;99.90;;;;;;4909725;29;20410;-82
2021/03/07 04:43:53;;;;;;;4.35;3.95;;;2.90;99.90;;;;;;4888658;29;20419;-82
2021/03/07 04:46:20;;;;;;;4.72;4.30;;;2.90;99.90;;;;;;4903663;29;20417;-82
2021/03/07 04:48:46;;;;;;;4.10;3.70;;;2.90;99.90;;;;;;4891661;29;20420;-84
2021/03/07 04:51:13;;;;;;;4.20;3.60;;;3.00;99.90;;;;;;4910278;29;20410;-82
2021/03/07 04:53:39;;;;;;;3.93;3.60;;;2.80;99.90;;;;;;4923280;29;20407;-85
2021/03/07 04:56:05;;;;;;;4.10;3.80;;;2.90;99.90;;;;;;4907592;29;20444;-84
2021/03/07 04:58:31;;;;;;;5.43;4.28;;;2.90;99.90;;;;;;4917251;29;20389;-82
2021/03/07 05:01:17;;;;;;;3.88;3.47;;;2.80;99.90;;;;;;4934107;29;20437;-82
2021/03/07 05:04:48;;;;;;;3.80;3.40;;;3.00;99.90;;;;;;4920818;29;20411;-83
2021/03/07 05:15:54;;;;;;;3.40;3.10;;;2.80;99.90;;;;;;4888059;29;20440;-82
2021/03/07 05:19:12;;;;;;;3.92;3.00;;;2.80;99.90;;;;;;4903496;29;20437;-84
2021/03/07 05:30:17;;;;;;;4.45;3.47;;;2.80;99.90;;;;;;4904397;28;20418;-83
2021/03/07 05:33:06;;;;;;;4.37;3.03;;;2.80;99.90;;;;;;4937642;29;20398;-82
2021/03/07 05:36:18;;;;;;;3.35;3.05;;;2.80;99.90;;;;;;4904276;28;20421;-84
2021/03/07 05:39:25;;;;;;;3.47;3.17;;;2.80;99.90;;;;;;4911761;28;20440;-85
2021/03/07 05:46:52;;;;;;;2.85;2.63;;;2.80;99.90;;;;;;4858904;29;20438;-83
2021/03/07 05:50:00;;;;;;;4.15;3.00;;;2.80;99.90;;;;;;4900017;29;20499;-83
2021/03/07 05:53:28;;;;;;;2.90;2.70;;;2.70;99.90;;;;;;4895477;29;20427;-84
2021/03/07 06:33:43;;;;;;;3.22;2.45;;;2.80;99.90;;;;;;5266186;23;20457;-79
2021/03/07 06:36:22;;;;;;;2.53;2.30;;;2.60;99.90;;;;;;4872659;29;20466;-80
2021/03/07 06:38:49;;;;;;;2.20;2.00;;;2.90;99.90;;;;;;4892679;29;20416;-78
2021/03/07 06:41:17;;;;;;;2.65;2.30;;;2.90;99.90;;;;;;4865298;29;20424;-80
2021/03/07 06:43:47;;;;;;;3.27;2.57;;;2.80;99.90;;;;;;4860796;29;20413;-80
2021/03/07 06:46:45;;;;;;;2.63;2.42;;;2.90;99.90;;;;;;4843260;29;20431;-79
2021/03/07 06:49:22;;;;;;;2.78;2.58;;;3.00;99.90;;;;;;4891807;29;20402;-80
2021/03/07 06:52:09;;;;;;;2.40;2.20;;;3.00;99.90;;;;;;4883826;29;20432;-80
2021/03/07 06:54:36;;;;;;;3.53;2.67;;;3.10;99.90;;;;;;4874587;29;20406;-80
2021/03/07 06:57:02;;;;;;;3.03;2.73;;;3.00;99.90;;;;;;4850636;29;20944;-78
2021/03/07 06:59:29;;;;;;;3.30;2.60;;;2.90;99.90;;;;;;4882111;29;20425;-79
2021/03/07 07:01:56;;;;;;;2.33;2.13;;;3.00;99.90;;;;;;4904762;29;20837;-78
2021/03/07 07:04:24;;;;;;;2.08;1.98;;;3.00;99.90;;;;;;4866135;29;20946;-78
2021/03/07 07:07:06;;;;;;;3.70;2.10;;;3.10;99.90;;;;;;4868426;29;20482;-79
2021/03/07 07:09:34;;;;;;;3.10;2.60;;;3.00;99.90;;;;;;4871351;29;20779;-79
2021/03/07 07:21:20;;;;;;;2.00;1.90;;;3.10;99.90;;;;;;5598504;23;20477;-81
2021/03/07 07:23:48;;;;;;;2.20;2.00;;;3.10;99.90;;;;;;4887175;29;20800;-81
2021/03/07 07:26:15;;;;;;;1.95;1.85;;;3.10;99.90;;;;;;4890573;29;20405;-83
2021/03/07 07:28:41;;;;;;;1.75;1.63;;;3.10;99.90;;;;;;4887250;29;20390;-81
2021/03/07 07:31:16;;;;;;;1.90;1.80;;;3.20;99.90;;;;;;4877884;29;20469;-81
2021/03/07 07:33:44;;;;;;;2.13;1.85;;;3.20;99.90;;;;;;4885302;29;20413;-79
2021/03/07 07:36:22;;;;;;;1.85;1.75;;;3.10;99.90;;;;;;4916079;29;20433;-81
2021/03/07 07:38:49;;;;;;;1.60;1.50;;;3.10;99.90;;;;;;4902655;29;20499;-79
2021/03/07 07:41:35;;;;;;;1.55;1.42;;;3.10;99.90;;;;;;4889706;29;20417;-81
2021/03/07 07:44:01;;;;;;;1.25;1.15;;;3.10;99.90;;;;;;4862646;29;20794;-79
2021/03/07 07:46:27;;;;;;;1.20;1.20;;;3.10;99.90;;;;;;4879449;29;20424;-79
2021/03/07 07:48:52;;;;;;;1.30;1.27;;;3.10;99.90;;;;;;4904215;29;20475;-78
2021/03/07 07:51:35;;;;;;;1.48;1.38;;;3.10;99.90;;;;;;4888951;29;20458;-79
2021/03/07 07:54:01;;;;;;;1.50;1.33;;;3.10;99.90;;;;;;4881559;29;20477;-78
2021/03/07 07:56:42;;;;;;;2.58;1.60;;;3.10;99.90;;;;;;4912094;29;20901;-78
2021/03/07 07:59:12;;;;;;;1.38;1.30;;;3.20;99.90;;;;;;4902659;29;20917;-78
2021/03/07 08:01:56;;;;;;;1.20;1.20;;;3.20;99.90;;;;;;4899523;29;20451;-79
2021/03/07 08:04:28;;;;;;;1.35;1.20;;;3.20;99.90;;;;;;4873729;29;20409;-78
2021/03/07 08:06:58;;;;;;;1.45;1.35;;;3.30;99.90;;;;;;4911585;29;20813;-77
2021/03/07 08:09:37;;;;;;;3.22;1.30;;;3.20;99.90;;;;;;4888305;29;20904;-77
2021/03/07 08:12:47;;;;;;;1.33;1.23;;;3.20;99.90;;;;;;4879717;29;20417;-78
2021/03/07 08:15:25;;;;;;;1.27;1.17;;;3.20;99.90;;;;;;4896734;29;20417;-77
2021/03/07 08:17:52;;;;;;;1.27;1.20;;;3.20;99.90;;;;;;4903767;29;20409;-78
2021/03/07 08:20:44;;;;;;;1.38;1.27;;;3.30;99.90;;;;;;4893429;29;20429;-79
2021/03/07 08:23:16;;;;;;;1.45;1.35;;;3.20;99.90;;;;;;4900394;29;20508;-78
2021/03/07 08:25:50;;;;;;;1.30;1.30;;;3.20;99.90;;;;;;4898519;29;20498;-81
2021/03/07 08:28:35;;;;;;;1.20;1.10;;;3.20;99.90;;;;;;4910509;29;20405;-79
2021/03/07 08:31:19;;;;;;;1.20;1.20;;;3.10;99.90;;;;;;4908643;29;20507;-78
2021/03/07 08:33:45;;;;;;;1.25;1.15;;;3.10;99.90;;;;;;4897396;29;20401;-78
2021/03/07 08:36:18;;;;;;;1.60;1.23;;;3.20;99.90;;;;;;4884446;29;20500;-77
2021/03/07 08:38:53;;;;;;;1.02;1.02;;;3.20;99.90;;;;;;4876492;29;20425;-77
2021/03/07 08:41:34;;;;;;;3.80;1.35;;;3.30;99.90;;;;;;4902374;29;20411;-79
2021/03/07 08:44:00;;;;;;;1.23;1.20;;;3.30;99.90;;;;;;4900017;29;20465;-79
2021/03/07 08:46:46;;;;;;;1.00;1.00;;;3.20;99.90;;;;;;4878536;29;20450;-78
2021/03/07 08:49:13;;;;;;;1.20;1.20;;;3.30;99.90;;;;;;4906333;29;21385;-80
2021/03/07 08:51:44;;;;;;;1.30;1.20;;;3.20;99.90;;;;;;4906127;29;20809;-78
2021/03/07 08:54:14;;;;;;;1.17;1.17;;;3.20;99.90;;;;;;4883127;29;20432;-78
2021/03/07 08:56:40;;;;;;;1.60;1.30;;;3.20;99.90;;;;;;4872450;29;20427;-80
2021/03/07 08:59:06;;;;;;;1.75;1.40;;;3.20;99.90;;;;;;4875779;29;20395;-78
2021/03/07 09:01:32;;;;;;;1.10;1.10;;;3.40;99.90;;;;;;4899687;29;20483;-80
2021/03/07 09:04:05;;;;;;;1.65;1.48;;;3.30;99.90;;;;;;4885542;29;20452;-79
2021/03/07 09:06:33;;;;;;;0.90;0.90;;;3.40;99.90;;;;;;4885043;29;20416;-79
2021/03/07 09:09:05;;;;;;;1.10;1.10;;;3.30;99.90;;;;;;4900313;29;20928;-78
2021/03/07 09:11:32;;;;;;;1.10;1.10;;;3.30;99.90;;;;;;4913831;29;20502;-78
2021/03/07 09:13:58;;;;;;;1.25;1.15;;;3.40;99.90;;;;;;4884679;29;20425;-79
2021/03/07 09:16:34;;;;;;;1.30;1.20;;;3.40;99.90;;;;;;4887713;29;20479;-77
2021/03/07 09:19:00;;;;;;;1.10;1.10;;;3.50;99.90;;;;;;4890137;29;20413;-78
2021/03/07 09:21:26;;;;;;;1.10;1.10;;;3.40;99.90;;;;;;4886560;29;20909;-79
2021/03/07 09:23:51;;;;;;;1.33;1.23;;;3.40;99.90;;;;;;4898546;29;20430;-79
2021/03/07 09:26:18;;;;;;;1.40;1.30;;;3.40;99.90;;;;;;4854618;29;20401;-80
2021/03/07 09:28:51;;;;;;;1.30;1.20;;;3.40;99.90;;;;;;4876742;29;20833;-79
2021/03/07 09:31:25;;;;;;;1.13;0.93;;;3.50;99.90;;;;;;4890256;29;20482;-78
2021/03/07 09:33:51;;;;;;;1.30;1.20;;;3.30;99.90;;;;;;4904403;29;20453;-78
2021/03/07 09:36:18;;;;;;;1.25;1.20;;;3.40;99.90;;;;;;4894922;29;20469;-77
2021/03/07 09:38:48;;;;;;;1.50;1.40;;;3.40;99.90;;;;;;4915096;29;20413;-77
2021/03/07 09:41:15;;;;;;;1.10;1.10;;;3.30;99.90;;;;;;4885740;29;21053;-76
2021/03/07 09:43:44;;;;;;;1.30;1.20;;;3.40;99.90;;;;;;4892650;29;20906;-77
2021/03/07 09:46:09;;;;;;;1.33;1.25;;;3.40;99.90;;;;;;4883213;29;20409;-77
2021/03/07 09:48:36;;;;;;;1.23;1.20;;;3.50;99.90;;;;;;4891899;29;20423;-79
2021/03/07 09:51:05;;;;;;;1.50;1.40;;;3.40;99.90;;;;;;4890772;29;20411;-76
2021/03/07 09:53:35;;;;;;;1.63;1.30;;;3.50;99.90;;;;;;4890208;29;20769;-78
2021/03/07 09:56:01;;;;;;;1.50;1.33;;;3.60;99.90;;;;;;4870527;29;20421;-78
2021/03/07 09:58:39;;;;;;;1.48;1.38;;;3.60;99.90;;;;;;4882963;29;21188;-78
2021/03/07 10:01:05;;;;;;;2.53;1.60;;;3.60;99.90;;;;;;4888708;29;20542;-76
2021/03/07 10:03:31;;;;;;;1.48;1.38;;;3.60;99.90;;;;;;4889021;29;20411;-77
2021/03/07 10:06:07;;;;;;;1.20;1.10;;;3.60;99.90;;;;;;4875386;29;20421;-77
2021/03/07 10:08:36;;;;;;;1.33;1.23;;;3.60;99.90;;;;;;4918639;29;20456;-80
2021/03/07 10:11:09;;;;;;;1.80;1.25;;;3.70;99.90;;;;;;4892727;29;20495;-79
2021/03/07 10:13:35;;;;;;;1.80;1.60;;;3.60;99.90;;;;;;4885135;29;20473;-77
2021/03/07 10:16:00;;;;;;;1.50;1.40;;;3.60;99.90;;;;;;4894652;29;20431;-79
2021/03/07 10:18:26;;;;;;;1.55;1.45;;;3.60;99.90;;;;;;4908255;29;20897;-77
2021/03/07 10:20:55;;;;;;;1.30;1.20;;;3.50;99.90;;;;;;4878046;29;20414;-79
2021/03/07 10:23:25;;;;;;;1.17;1.17;;;3.50;99.90;;;;;;4868781;29;20419;-79
2021/03/07 10:25:51;;;;;;;1.10;1.10;;;3.60;99.90;;;;;;4899852;29;20937;-80
2021/03/07 10:28:30;;;;;;;1.40;1.30;;;3.70;99.90;;;;;;4878837;29;20429;-79
2021/03/07 10:31:12;;;;;;;1.50;1.40;;;4.00;99.90;;;;;;4898742;29;20415;-79
2021/03/07 10:33:38;;;;;;;1.13;1.13;;;3.90;99.90;;;;;;4861181;29;20429;-78
2021/03/07 10:36:07;;;;;;;1.33;1.23;;;3.80;99.90;;;;;;4871692;29;20415;-79
2021/03/07 10:38:40;;;;;;;1.27;1.05;;;3.80;99.90;;;;;;4910387;29;20408;-82
2021/03/07 10:41:32;;;;;;;1.50;1.40;;;3.60;99.90;;;;;;4905743;29;20412;-80
2021/03/07 10:44:02;;;;;;;1.10;1.10;;;3.60;99.90;;;;;;4891785;29;20405;-79
2021/03/07 10:46:31;;;;;;;1.40;1.30;;;3.70;99.90;;;;;;4869005;29;20404;-81
2021/03/07 10:48:57;;;;;;;1.48;1.38;;;3.70;99.90;;;;;;4932869;29;20485;-79
2021/03/07 10:51:23;;;;;;;1.40;1.30;;;3.70;99.90;;;;;;4928065;29;20450;-79
2021/03/07 10:53:49;;;;;;;1.30;1.30;;;3.80;99.90;;;;;;4849021;29;20849;-79
2021/03/07 10:56:15;;;;;;;1.42;1.33;;;3.60;99.90;;;;;;4880285;29;20448;-79
2021/03/07 10:58:41;;;;;;;1.67;1.58;;;3.60;99.90;;;;;;4886543;29;20400;-79
2021/03/07 11:01:06;;;;;;;1.47;1.30;;;3.70;99.90;;;;;;4884352;29;20542;-79
2021/03/07 11:03:32;;;;;;;2.70;1.47;;;3.80;99.90;;;;;;4869774;29;20436;-80
2021/03/07 11:05:59;;;;;;;1.48;1.38;;;3.80;99.90;;;;;;4900141;29;20408;-80
2021/03/07 11:08:24;;;;;;;1.85;1.50;;;3.80;99.90;;;;;;4896595;29;21028;-78
2021/03/07 11:10:50;;;;;;;1.53;1.43;;;3.70;99.90;;;;;;4898512;29;20413;-78
2021/03/07 11:13:16;;;;;;;1.33;1.23;;;3.80;99.90;;;;;;4880774;29;20448;-81
2021/03/07 11:15:41;;;;;;;1.20;1.20;;;3.70;99.90;;;;;;4883896;29;20415;-79
2021/03/07 11:18:07;;;;;;;1.70;1.50;;;3.60;99.90;;;;;;4898774;29;20423;-81
2021/03/07 11:23:35;;;;;;;1.90;1.30;;;3.60;99.90;;;;;;5383394;23;20485;-79
2021/03/07 11:26:04;;;;;;;1.95;1.40;;;3.60;99.90;;;;;;4886044;29;20878;-81
2021/03/07 11:28:30;;;;;;;1.60;1.50;;;3.60;99.90;;;;;;4886391;29;20425;-80
2021/03/07 11:30:59;;;;;;;1.42;1.33;;;3.60;99.90;;;;;;4885458;29;20405;-80
2021/03/07 11:33:25;;;;;;;3.35;1.50;;;3.60;99.90;;;;;;4885442;29;20961;-80
2021/03/07 11:35:51;;;;;;;1.35;1.25;;;3.70;99.90;;;;;;4884880;29;20433;-80
2021/03/07 11:38:17;;;;;;;1.52;1.42;;;3.60;99.90;;;;;;4874797;29;20409;-80
2021/03/07 11:40:43;;;;;;;1.40;1.30;;;3.60;99.90;;;;;;4869003;29;20957;-81
2021/03/07 11:43:09;;;;;;;2.22;1.30;;;3.60;99.90;;;;;;4882259;29;20413;-79
2021/03/07 11:45:34;;;;;;;1.50;1.40;;;3.60;99.90;;;;;;4881372;29;20466;-81
2021/03/07 11:48:00;;;;;;;1.40;1.30;;;3.60;99.90;;;;;;4884428;29;20393;-80
2021/03/07 11:50:27;;;;;;;1.85;1.33;;;3.70;99.90;;;;;;4858608;29;20440;-81
2021/03/07 11:52:53;;;;;;;1.40;1.30;;;3.70;99.90;;;;;;4865812;29;20402;-80
2021/03/07 11:55:18;;;;;;;1.77;1.55;;;3.70;99.90;;;;;;4877115;29;20401;-79
2021/03/07 11:57:44;;;;;;;1.77;1.63;;;3.60;99.90;;;;;;4880287;29;20428;-79
2021/03/07 12:00:10;;;;;;;1.57;1.40;;;3.70;99.90;;;;;;4895597;29;20409;-78
2021/03/07 12:02:39;;;;;;;1.57;1.47;;;3.60;99.90;;;;;;4889404;29;20436;-76
2021/03/07 12:05:06;;;;;;;1.60;1.50;;;3.60;99.90;;;;;;4869037;29;20425;-76
2021/03/07 12:07:31;;;;;;;2.78;1.40;;;3.60;99.90;;;;;;4867389;29;20441;-78
2021/03/07 12:09:57;;;;;;;1.50;1.40;;;3.70;99.90;;;;;;4865490;29;20461;-78
2021/03/07 12:12:23;;;;;;;1.60;1.50;;;3.80;99.90;;;;;;4882443;29;20427;-77
2021/03/07 12:14:51;;;;;;;2.00;1.70;;;3.70;99.90;;;;;;4887068;29;20823;-81
2021/03/07 12:17:33;;;;;;;1.52;1.42;;;3.80;99.90;;;;;;4877388;29;20448;-81
2021/03/07 12:19:59;;;;;;;1.40;1.30;;;3.60;99.90;;;;;;4880915;29;20457;-82
2021/03/07 12:26:19;;;;;;;1.40;1.30;;;3.70;99.90;;;;;;4907923;29;20451;-80
2021/03/07 12:28:45;;;;;;;1.58;1.48;;;3.50;99.90;;;;;;4899028;29;20407;-80
2021/03/07 12:31:12;;;;;;;2.03;1.70;;;3.50;99.90;;;;;;4886357;29;20399;-80
2021/03/07 12:33:39;;;;;;;2.72;2.03;;;3.60;99.90;;;;;;4858036;29;20454;-82
2021/03/07 12:36:05;;;;;;;2.03;1.88;;;3.70;99.90;;;;;;4862770;29;20453;-80
2021/03/07 12:38:31;;;;;;;2.05;1.70;;;3.80;99.90;;;;;;4867951;29;20407;-79
2021/03/07 12:40:57;;;;;;;1.70;1.60;;;3.80;99.90;;;;;;4904225;29;20407;-79
2021/03/07 12:43:23;;;;;;;4.83;2.07;;;3.90;99.90;;;;;;4882827;29;20492;-81
2021/03/07 12:45:48;;;;;;;2.90;2.00;;;3.90;99.90;;;;;;4884506;29;20397;-84
2021/03/07 12:48:14;;;;;;;3.00;2.00;;;4.00;99.90;;;;;;4902725;29;20405;-80
2021/03/07 12:50:40;;;;;;;2.65;2.20;;;3.90;99.90;;;;;;4878644;29;20433;-79
2021/03/07 12:53:05;;;;;;;2.40;1.87;;;3.90;99.90;;;;;;4886249;29;20488;-80
2021/03/07 12:55:32;;;;;;;2.03;1.70;;;3.80;99.90;;;;;;4869974;29;20411;-81
2021/03/07 12:57:58;;;;;;;1.70;1.60;;;3.80;99.90;;;;;;4874830;29;20417;-82
2021/03/07 13:00:25;;;;;;;2.15;1.95;;;3.70;99.90;;;;;;4849315;29;20480;-80
2021/03/07 13:02:51;;;;;;;1.70;1.60;;;3.50;99.90;;;;;;4877715;29;20413;-80
2021/03/07 13:05:20;;;;;;;2.10;1.97;;;3.50;99.90;;;;;;4877668;29;20455;-82
2021/03/07 13:08:13;;;;;;;2.05;1.95;;;3.40;99.90;;;;;;4874916;29;20407;-82
2021/03/07 13:11:19;;;;;;;2.83;2.20;;;3.50;99.90;;;;;;4887039;29;20409;-80
2021/03/07 13:14:37;;;;;;;1.47;1.37;;;3.50;99.90;;;;;;4880079;29;20408;-82
2021/03/07 13:17:26;;;;;;;1.90;1.80;;;3.70;99.90;;;;;;4884028;29;20467;-81
2021/03/07 13:23:07;;;;;;;2.28;2.03;;;3.60;99.90;;;;;;5448417;23;20455;-78
2021/03/07 13:25:33;;;;;;;2.95;1.90;;;3.80;99.90;;;;;;4886284;29;20403;-78
2021/03/07 13:27:59;;;;;;;1.75;1.65;;;3.60;99.90;;;;;;4869183;29;20404;-75
2021/03/07 13:30:25;;;;;;;1.83;1.60;;;3.70;99.90;;;;;;4853670;29;20395;-78
2021/03/07 13:32:57;;;;;;;2.75;1.75;;;3.70;99.90;;;;;;4860512;29;20398;-77
2021/03/07 13:35:23;;;;;;;1.48;1.38;;;3.60;99.90;;;;;;4854517;29;20475;-78
2021/03/07 13:37:49;;;;;;;1.60;1.50;;;3.50;99.90;;;;;;4876785;29;20424;-77
2021/03/07 13:40:15;;;;;;;2.30;2.10;;;3.50;99.90;;;;;;4873016;29;20783;-76
2021/03/07 13:42:40;;;;;;;1.83;1.73;;;3.50;99.90;;;;;;4865799;29;20417;-77
2021/03/07 13:45:09;;;;;;;1.60;1.50;;;3.60;99.90;;;;;;4888354;29;20417;-78
2021/03/07 13:47:35;;;;;;;2.70;1.67;;;3.60;99.90;;;;;;4853253;29;20556;-77
2021/03/07 13:50:00;;;;;;;3.43;2.10;;;3.60;99.90;;;;;;4888964;29;20440;-78
2021/03/07 13:52:26;;;;;;;1.63;1.50;;;3.60;99.90;;;;;;4882870;29;20440;-78
2021/03/07 13:54:52;;;;;;;1.67;1.58;;;3.60;99.90;;;;;;4887014;29;20438;-76
2021/03/07 13:57:18;;;;;;;6.18;2.10;;;3.60;99.90;;;;;;4893785;29;20420;-76
2021/03/07 13:59:44;;;;;;;2.30;1.85;;;3.50;99.90;;;;;;4858168;29;20416;-77
2021/03/07 14:02:09;;;;;;;1.67;1.58;;;3.50;99.90;;;;;;4884635;29;20403;-78
2021/03/07 14:04:38;;;;;;;2.97;1.80;;;3.50;99.90;;;;;;4899688;29;20814;-78
2021/03/07 14:07:04;;;;;;;1.70;1.60;;;3.50;99.90;;;;;;4881052;29;20561;-78
2021/03/07 14:09:31;;;;;;;1.90;1.80;;;3.50;99.90;;;;;;4883060;29;20496;-77
2021/03/07 14:11:57;;;;;;;1.50;1.40;;;3.50;99.90;;;;;;4873536;29;20496;-78
2021/03/07 14:14:25;;;;;;;1.80;1.70;;;3.60;99.90;;;;;;4850213;29;20414;-78
2021/03/07 14:16:51;;;;;;;1.50;1.40;;;3.50;99.90;;;;;;4840118;29;20948;-77
2021/03/07 14:19:17;;;;;;;1.58;1.48;;;3.40;99.90;;;;;;4867017;29;20515;-77
2021/03/07 14:21:43;;;;;;;1.90;1.80;;;3.50;99.90;;;;;;4877904;29;20492;-76
2021/03/07 14:24:09;;;;;;;2.50;1.75;;;3.50;99.90;;;;;;4861662;29;20414;-77
2021/03/07 14:26:35;;;;;;;1.70;1.60;;;3.60;99.90;;;;;;4853835;29;20493;-76
2021/03/07 14:29:00;;;;;;;3.70;3.13;;;3.70;99.90;;;;;;4868788;29;20416;-76
2021/03/07 14:31:26;;;;;;;6.57;3.70;;;3.70;99.90;;;;;;4873644;29;20511;-76
2021/03/07 14:33:54;;;;;;;3.72;3.40;;;3.70;99.90;;;;;;4877704;29;20423;-76
2021/03/07 14:36:20;;;;;;;3.85;2.22;;;3.60;99.90;;;;;;4878085;29;20763;-76
2021/03/07 14:38:46;;;;;;;2.30;2.10;;;3.70;99.90;;;;;;4876322;29;20453;-77
2021/03/07 14:41:12;;;;;;;1.80;1.70;;;3.70;99.90;;;;;;4857647;29;21889;-76
2021/03/07 14:43:41;;;;;;;2.22;2.03;;;3.70;99.90;;;;;;4870025;29;20439;-76
2021/03/07 14:46:06;;;;;;;2.08;1.95;;;3.60;99.90;;;;;;4876609;29;21524;-76
2021/03/07 14:48:32;;;;;;;2.30;2.10;;;3.90;99.90;;;;;;4890701;29;20407;-76
2021/03/07 14:50:58;;;;;;;1.80;1.70;;;3.70;99.90;;;;;;4843441;29;20836;-76
2021/03/07 14:53:26;;;;;;;2.53;2.20;;;3.60;99.90;;;;;;4865643;29;20560;-77
2021/03/07 14:55:52;;;;;;;2.00;1.90;;;3.70;99.90;;;;;;4870651;29;20467;-76
2021/03/07 14:58:18;;;;;;;1.92;1.83;;;3.60;99.90;;;;;;4855599;29;20421;-77
2021/03/07 15:00:44;;;;;;;1.65;1.55;;;3.60;99.90;;;;;;4887711;29;20455;-76
2021/03/07 15:03:09;;;;;;;2.45;1.77;;;3.60;99.90;;;;;;4842497;29;20925;-76
2021/03/07 15:05:35;;;;;;;2.40;1.83;;;3.70;99.90;;;;;;4855791;29;20417;-77
2021/03/07 15:08:01;;;;;;;1.60;1.50;;;3.70;99.90;;;;;;4878387;29;20468;-78
2021/03/07 15:10:27;;;;;;;1.80;1.70;;;3.70;99.90;;;;;;4858740;29;20413;-78
2021/03/07 15:12:53;;;;;;;2.17;1.98;;;3.70;99.90;;;;;;4843658;29;20488;-77
2021/03/07 15:15:19;;;;;;;3.00;2.13;;;3.70;99.90;;;;;;4863819;29;20939;-78
2021/03/07 15:17:44;;;;;;;2.20;2.00;;;3.60;99.90;;;;;;4857906;29;20413;-78
2021/03/07 15:20:10;;;;;;;1.93;1.83;;;3.60;99.90;;;;;;4883862;29;20408;-77
2021/03/07 15:22:36;;;;;;;1.92;1.83;;;3.60;99.90;;;;;;4873034;29;21017;-77
2021/03/07 15:25:03;;;;;;;2.37;2.17;;;3.60;99.90;;;;;;4888746;29;20556;-78
2021/03/07 15:27:29;;;;;;;2.50;2.10;;;3.50;99.90;;;;;;4874367;29;20515;-77
2021/03/07 15:29:55;;;;;;;2.20;2.05;;;3.60;99.90;;;;;;4873110;29;20523;-77
2021/03/07 15:32:20;;;;;;;1.73;1.63;;;3.50;99.90;;;;;;4880811;29;20413;-77
2021/03/07 15:34:47;;;;;;;2.10;1.90;;;3.50;99.90;;;;;;4881852;29;20409;-76
2021/03/07 15:37:14;;;;;;;1.90;1.80;;;3.50;99.90;;;;;;4878861;29;20439;-77
2021/03/07 15:39:41;;;;;;;1.98;1.88;;;3.50;99.90;;;;;;4892124;29;20863;-77
2021/03/07 15:42:07;;;;;;;1.60;1.50;;;3.50;99.90;;;;;;4876354;29;20407;-78